sensor_id;sensor_type;location;lat;lon;timestamp;P1;durP1;ratioP1;P2;durP2;ratioP2
66603;SDS011;53460;39.612;8.822;2022-08-19T00:00:13;6.30;;;1.90;;
66603;SDS011;53460;39.612;8.822;2022-08-19T00:02:40;5.68;;;1.90;;
66603;SDS011;53460;39.612;8.822;2022-08-19T00:05:06;3.10;;;1.50;;
66603;SDS011;53460;39.612;8.822;2022-08-19T00:07:32;4.40;;;1.70;;
66603;SDS011;53460;39.612;8.822;2022-08-19T00:09:58;6.38;;;1.70;;
66603;SDS011;53460;39.612;8.822;2022-08-19T00:12:23;3.72;;;1.40;;
66603;SDS011;53460;39.612;8.822;2022-08-19T00:14:49;4.18;;;1.40;;
66603;SDS011;53460;39.612;8.822;2022-08-19T00:17:14;8.63;;;1.80;;
66603;SDS011;53460;39.612;8.822;2022-08-19T00:19:40;5.53;;;1.80;;
66603;SDS011;53460;39.612;8.822;2022-08-19T00:22:06;9.07;;;1.83;;
66603;SDS011;53460;39.612;8.822;2022-08-19T00:24:33;4.97;;;1.88;;
66603;SDS011;53460;39.612;8.822;2022-08-19T00:26:59;4.07;;;1.80;;
66603;SDS011;53460;39.612;8.822;2022-08-19T00:29:27;6.70;;;1.77;;
66603;SDS011;53460;39.612;8.822;2022-08-19T00:31:53;3.17;;;1.40;;
66603;SDS011;53460;39.612;8.822;2022-08-19T00:34:21;8.85;;;1.80;;
66603;SDS011;53460;39.612;8.822;2022-08-19T00:36:47;5.40;;;1.73;;
66603;SDS011;53460;39.612;8.822;2022-08-19T00:39:13;4.75;;;1.70;;
66603;SDS011;53460;39.612;8.822;2022-08-19T00:41:40;4.30;;;1.70;;
66603;SDS011;53460;39.612;8.822;2022-08-19T00:46:32;3.78;;;1.40;;
66603;SDS011;53460;39.612;8.822;2022-08-19T00:48:59;3.20;;;1.95;;
66603;SDS011;53460;39.612;8.822;2022-08-19T00:51:26;4.55;;;1.30;;
66603;SDS011;53460;39.612;8.822;2022-08-19T00:53:53;8.32;;;2.13;;
66603;SDS011;53460;39.612;8.822;2022-08-19T00:56:19;8.35;;;1.63;;
66603;SDS011;53460;39.612;8.822;2022-08-19T00:58:45;5.85;;;1.90;;
66603;SDS011;53460;39.612;8.822;2022-08-19T01:01:11;5.28;;;2.13;;
66603;SDS011;53460;39.612;8.822;2022-08-19T01:03:36;12.90;;;2.25;;
66603;SDS011;53460;39.612;8.822;2022-08-19T01:06:02;9.93;;;1.77;;
66603;SDS011;53460;39.612;8.822;2022-08-19T01:08:27;4.22;;;1.50;;
66603;SDS011;53460;39.612;8.822;2022-08-19T01:10:56;3.05;;;1.52;;
66603;SDS011;53460;39.612;8.822;2022-08-19T01:13:24;4.45;;;1.55;;
66603;SDS011;53460;39.612;8.822;2022-08-19T01:15:55;4.95;;;1.60;;
66603;SDS011;53460;39.612;8.822;2022-08-19T01:18:21;4.88;;;1.73;;
66603;SDS011;53460;39.612;8.822;2022-08-19T01:20:47;9.65;;;2.97;;
66603;SDS011;53460;39.612;8.822;2022-08-19T01:23:14;4.22;;;1.60;;
66603;SDS011;53460;39.612;8.822;2022-08-19T01:25:48;4.40;;;1.70;;
66603;SDS011;53460;39.612;8.822;2022-08-19T01:28:23;3.53;;;1.40;;
66603;SDS011;53460;39.612;8.822;2022-08-19T01:30:50;2.63;;;1.40;;
66603;SDS011;53460;39.612;8.822;2022-08-19T01:33:15;4.55;;;1.55;;
66603;SDS011;53460;39.612;8.822;2022-08-19T01:35:41;4.85;;;1.95;;
66603;SDS011;53460;39.612;8.822;2022-08-19T01:38:09;5.80;;;1.60;;
66603;SDS011;53460;39.612;8.822;2022-08-19T01:40:36;6.78;;;1.50;;
66603;SDS011;53460;39.612;8.822;2022-08-19T01:43:03;5.38;;;1.52;;
66603;SDS011;53460;39.612;8.822;2022-08-19T01:45:30;5.82;;;1.88;;
66603;SDS011;53460;39.612;8.822;2022-08-19T01:47:56;5.60;;;2.38;;
66603;SDS011;53460;39.612;8.822;2022-08-19T01:50:22;5.45;;;1.45;;
66603;SDS011;53460;39.612;8.822;2022-08-19T01:52:47;4.18;;;1.65;;
66603;SDS011;53460;39.612;8.822;2022-08-19T01:55:17;4.93;;;1.92;;
66603;SDS011;53460;39.612;8.822;2022-08-19T01:57:44;5.78;;;1.70;;
66603;SDS011;53460;39.612;8.822;2022-08-19T02:00:11;5.38;;;1.90;;
66603;SDS011;53460;39.612;8.822;2022-08-19T02:02:37;5.80;;;1.58;;
66603;SDS011;53460;39.612;8.822;2022-08-19T02:05:03;5.45;;;1.55;;
66603;SDS011;53460;39.612;8.822;2022-08-19T02:07:29;3.58;;;1.63;;
66603;SDS011;53460;39.612;8.822;2022-08-19T02:09:54;3.80;;;1.35;;
66603;SDS011;53460;39.612;8.822;2022-08-19T02:12:20;4.75;;;1.40;;
66603;SDS011;53460;39.612;8.822;2022-08-19T02:14:46;4.55;;;1.35;;
66603;SDS011;53460;39.612;8.822;2022-08-19T02:17:12;2.47;;;1.50;;
66603;SDS011;53460;39.612;8.822;2022-08-19T02:19:37;3.75;;;1.50;;
66603;SDS011;53460;39.612;8.822;2022-08-19T02:22:03;3.47;;;1.50;;
66603;SDS011;53460;39.612;8.822;2022-08-19T02:24:29;3.90;;;1.58;;
66603;SDS011;53460;39.612;8.822;2022-08-19T02:26:54;4.30;;;1.55;;
66603;SDS011;53460;39.612;8.822;2022-08-19T02:29:20;4.65;;;1.38;;
66603;SDS011;53460;39.612;8.822;2022-08-19T02:31:46;5.72;;;1.80;;
66603;SDS011;53460;39.612;8.822;2022-08-19T02:34:11;3.25;;;1.23;;
66603;SDS011;53460;39.612;8.822;2022-08-19T02:36:37;2.83;;;1.40;;
66603;SDS011;53460;39.612;8.822;2022-08-19T02:39:02;3.40;;;1.60;;
66603;SDS011;53460;39.612;8.822;2022-08-19T02:41:29;8.43;;;2.20;;
66603;SDS011;53460;39.612;8.822;2022-08-19T02:43:56;5.30;;;1.70;;
66603;SDS011;53460;39.612;8.822;2022-08-19T02:46:26;6.43;;;1.50;;
66603;SDS011;53460;39.612;8.822;2022-08-19T02:48:52;4.10;;;1.73;;
66603;SDS011;53460;39.612;8.822;2022-08-19T02:51:20;3.15;;;1.35;;
66603;SDS011;53460;39.612;8.822;2022-08-19T02:53:46;3.15;;;1.35;;
66603;SDS011;53460;39.612;8.822;2022-08-19T02:56:11;3.45;;;1.45;;
66603;SDS011;53460;39.612;8.822;2022-08-19T02:58:37;2.70;;;1.25;;
66603;SDS011;53460;39.612;8.822;2022-08-19T03:01:02;6.57;;;1.40;;
66603;SDS011;53460;39.612;8.822;2022-08-19T03:03:28;4.53;;;1.30;;
66603;SDS011;53460;39.612;8.822;2022-08-19T03:06:03;5.93;;;1.70;;
66603;SDS011;53460;39.612;8.822;2022-08-19T03:08:29;8.93;;;2.03;;
66603;SDS011;53460;39.612;8.822;2022-08-19T03:10:55;2.80;;;1.40;;
66603;SDS011;53460;39.612;8.822;2022-08-19T03:13:21;3.67;;;1.50;;
66603;SDS011;53460;39.612;8.822;2022-08-19T03:15:47;2.90;;;1.30;;
66603;SDS011;53460;39.612;8.822;2022-08-19T03:18:13;4.95;;;1.23;;
66603;SDS011;53460;39.612;8.822;2022-08-19T03:20:45;5.43;;;1.55;;
66603;SDS011;53460;39.612;8.822;2022-08-19T03:23:12;4.45;;;1.50;;
66603;SDS011;53460;39.612;8.822;2022-08-19T03:25:42;3.85;;;1.55;;
66603;SDS011;53460;39.612;8.822;2022-08-19T03:28:09;11.05;;;1.63;;
66603;SDS011;53460;39.612;8.822;2022-08-19T03:30:34;4.45;;;1.80;;
66603;SDS011;53460;39.612;8.822;2022-08-19T03:33:00;6.40;;;1.58;;
66603;SDS011;53460;39.612;8.822;2022-08-19T03:35:25;5.00;;;1.60;;
66603;SDS011;53460;39.612;8.822;2022-08-19T03:37:51;9.63;;;2.30;;
66603;SDS011;53460;39.612;8.822;2022-08-19T03:40:18;6.28;;;1.75;;
66603;SDS011;53460;39.612;8.822;2022-08-19T03:42:44;4.00;;;1.52;;
66603;SDS011;53460;39.612;8.822;2022-08-19T03:45:11;3.58;;;1.52;;
66603;SDS011;53460;39.612;8.822;2022-08-19T03:47:36;6.72;;;1.85;;
66603;SDS011;53460;39.612;8.822;2022-08-19T03:50:03;3.72;;;1.65;;
66603;SDS011;53460;39.612;8.822;2022-08-19T03:52:28;5.18;;;1.85;;
66603;SDS011;53460;39.612;8.822;2022-08-19T03:54:54;5.88;;;1.70;;
66603;SDS011;53460;39.612;8.822;2022-08-19T03:57:19;6.65;;;1.80;;
66603;SDS011;53460;39.612;8.822;2022-08-19T03:59:45;4.13;;;1.75;;
66603;SDS011;53460;39.612;8.822;2022-08-19T04:02:11;4.47;;;1.88;;
66603;SDS011;53460;39.612;8.822;2022-08-19T04:04:37;5.18;;;1.80;;
66603;SDS011;53460;39.612;8.822;2022-08-19T04:07:03;5.20;;;1.52;;
66603;SDS011;53460;39.612;8.822;2022-08-19T04:09:29;7.13;;;1.77;;
66603;SDS011;53460;39.612;8.822;2022-08-19T04:11:55;6.63;;;2.00;;
66603;SDS011;53460;39.612;8.822;2022-08-19T04:14:25;5.90;;;1.90;;
66603;SDS011;53460;39.612;8.822;2022-08-19T04:16:51;5.22;;;1.40;;
66603;SDS011;53460;39.612;8.822;2022-08-19T04:19:17;3.50;;;1.80;;
66603;SDS011;53460;39.612;8.822;2022-08-19T04:21:44;5.65;;;1.65;;
66603;SDS011;53460;39.612;8.822;2022-08-19T04:24:11;3.90;;;1.58;;
66603;SDS011;53460;39.612;8.822;2022-08-19T04:26:37;8.05;;;1.50;;
66603;SDS011;53460;39.612;8.822;2022-08-19T04:29:07;1.70;;;1.20;;
66603;SDS011;53460;39.612;8.822;2022-08-19T04:31:33;4.68;;;1.70;;
66603;SDS011;53460;39.612;8.822;2022-08-19T04:34:01;8.63;;;1.92;;
66603;SDS011;53460;39.612;8.822;2022-08-19T04:36:28;5.43;;;1.55;;
66603;SDS011;53460;39.612;8.822;2022-08-19T04:38:55;7.00;;;1.98;;
66603;SDS011;53460;39.612;8.822;2022-08-19T04:41:21;5.25;;;1.67;;
66603;SDS011;53460;39.612;8.822;2022-08-19T04:44:05;4.43;;;1.52;;
66603;SDS011;53460;39.612;8.822;2022-08-19T04:46:31;5.90;;;2.10;;
66603;SDS011;53460;39.612;8.822;2022-08-19T04:49:00;6.32;;;1.75;;
66603;SDS011;53460;39.612;8.822;2022-08-19T04:51:26;9.48;;;1.65;;
66603;SDS011;53460;39.612;8.822;2022-08-19T04:53:52;4.00;;;1.83;;
66603;SDS011;53460;39.612;8.822;2022-08-19T04:56:18;5.22;;;2.00;;
66603;SDS011;53460;39.612;8.822;2022-08-19T04:58:45;6.18;;;1.52;;
66603;SDS011;53460;39.612;8.822;2022-08-19T05:01:12;8.82;;;2.00;;
66603;SDS011;53460;39.612;8.822;2022-08-19T05:03:38;2.72;;;1.48;;
66603;SDS011;53460;39.612;8.822;2022-08-19T05:06:05;3.80;;;1.50;;
66603;SDS011;53460;39.612;8.822;2022-08-19T05:08:32;6.15;;;2.00;;
66603;SDS011;53460;39.612;8.822;2022-08-19T05:10:59;6.07;;;1.63;;
66603;SDS011;53460;39.612;8.822;2022-08-19T05:13:25;5.45;;;1.52;;
66603;SDS011;53460;39.612;8.822;2022-08-19T05:15:55;5.70;;;1.95;;
66603;SDS011;53460;39.612;8.822;2022-08-19T05:18:21;4.88;;;2.63;;
66603;SDS011;53460;39.612;8.822;2022-08-19T05:21:06;6.57;;;2.42;;
66603;SDS011;53460;39.612;8.822;2022-08-19T05:23:51;3.70;;;1.60;;
66603;SDS011;53460;39.612;8.822;2022-08-19T05:26:16;4.30;;;1.80;;
66603;SDS011;53460;39.612;8.822;2022-08-19T05:28:42;9.30;;;3.17;;
66603;SDS011;53460;39.612;8.822;2022-08-19T05:31:07;7.20;;;1.85;;
66603;SDS011;53460;39.612;8.822;2022-08-19T05:33:33;10.15;;;1.80;;
66603;SDS011;53460;39.612;8.822;2022-08-19T05:35:58;5.05;;;1.52;;
66603;SDS011;53460;39.612;8.822;2022-08-19T05:38:24;4.65;;;1.90;;
66603;SDS011;53460;39.612;8.822;2022-08-19T05:40:51;8.15;;;2.08;;
66603;SDS011;53460;39.612;8.822;2022-08-19T05:43:16;4.32;;;1.67;;
66603;SDS011;53460;39.612;8.822;2022-08-19T05:45:42;10.48;;;2.17;;
66603;SDS011;53460;39.612;8.822;2022-08-19T05:48:09;7.30;;;1.67;;
66603;SDS011;53460;39.612;8.822;2022-08-19T05:50:36;5.95;;;1.73;;
66603;SDS011;53460;39.612;8.822;2022-08-19T05:53:02;4.78;;;1.75;;
66603;SDS011;53460;39.612;8.822;2022-08-19T05:55:27;5.88;;;1.67;;
66603;SDS011;53460;39.612;8.822;2022-08-19T05:57:53;8.57;;;1.90;;
66603;SDS011;53460;39.612;8.822;2022-08-19T06:00:18;8.68;;;2.10;;
66603;SDS011;53460;39.612;8.822;2022-08-19T06:02:44;17.58;;;2.95;;
66603;SDS011;53460;39.612;8.822;2022-08-19T06:05:10;19.67;;;2.90;;
66603;SDS011;53460;39.612;8.822;2022-08-19T06:07:36;17.70;;;2.78;;
66603;SDS011;53460;39.612;8.822;2022-08-19T06:10:03;9.82;;;2.85;;
66603;SDS011;53460;39.612;8.822;2022-08-19T06:12:29;9.57;;;2.20;;
66603;SDS011;53460;39.612;8.822;2022-08-19T06:14:58;9.05;;;1.85;;
66603;SDS011;53460;39.612;8.822;2022-08-19T06:17:24;6.03;;;2.13;;
66603;SDS011;53460;39.612;8.822;2022-08-19T06:19:51;7.32;;;1.80;;
66603;SDS011;53460;39.612;8.822;2022-08-19T06:22:16;6.97;;;2.42;;
66603;SDS011;53460;39.612;8.822;2022-08-19T06:24:42;5.55;;;1.80;;
66603;SDS011;53460;39.612;8.822;2022-08-19T06:27:08;5.72;;;1.92;;
66603;SDS011;53460;39.612;8.822;2022-08-19T06:29:33;7.97;;;1.95;;
66603;SDS011;53460;39.612;8.822;2022-08-19T06:32:01;8.98;;;2.20;;
66603;SDS011;53460;39.612;8.822;2022-08-19T06:34:29;8.90;;;2.05;;
66603;SDS011;53460;39.612;8.822;2022-08-19T06:36:55;7.30;;;2.00;;
66603;SDS011;53460;39.612;8.822;2022-08-19T06:39:23;10.50;;;1.90;;
66603;SDS011;53460;39.612;8.822;2022-08-19T06:41:51;6.63;;;2.00;;
66603;SDS011;53460;39.612;8.822;2022-08-19T06:44:18;7.18;;;1.85;;
66603;SDS011;53460;39.612;8.822;2022-08-19T06:46:43;6.63;;;1.75;;
66603;SDS011;53460;39.612;8.822;2022-08-19T06:49:09;8.15;;;1.70;;
66603;SDS011;53460;39.612;8.822;2022-08-19T06:51:39;6.78;;;2.20;;
66603;SDS011;53460;39.612;8.822;2022-08-19T06:54:04;5.00;;;2.30;;
66603;SDS011;53460;39.612;8.822;2022-08-19T06:56:31;8.98;;;2.60;;
66603;SDS011;53460;39.612;8.822;2022-08-19T06:59:03;7.05;;;2.03;;
66603;SDS011;53460;39.612;8.822;2022-08-19T07:01:29;6.28;;;2.30;;
66603;SDS011;53460;39.612;8.822;2022-08-19T07:03:54;7.97;;;2.33;;
66603;SDS011;53460;39.612;8.822;2022-08-19T07:06:20;8.77;;;2.45;;
66603;SDS011;53460;39.612;8.822;2022-08-19T07:08:46;7.43;;;2.20;;
66603;SDS011;53460;39.612;8.822;2022-08-19T07:11:12;8.70;;;2.10;;
66603;SDS011;53460;39.612;8.822;2022-08-19T07:13:38;8.68;;;2.80;;
66603;SDS011;53460;39.612;8.822;2022-08-19T07:16:04;7.15;;;2.15;;
66603;SDS011;53460;39.612;8.822;2022-08-19T07:18:30;7.03;;;2.13;;
66603;SDS011;53460;39.612;8.822;2022-08-19T07:23:58;7.72;;;2.25;;
66603;SDS011;53460;39.612;8.822;2022-08-19T07:26:25;7.22;;;1.83;;
66603;SDS011;53460;39.612;8.822;2022-08-19T07:28:51;6.07;;;2.17;;
66603;SDS011;53460;39.612;8.822;2022-08-19T07:31:20;4.72;;;2.03;;
66603;SDS011;53460;39.612;8.822;2022-08-19T07:33:47;17.27;;;2.80;;
66603;SDS011;53460;39.612;8.822;2022-08-19T07:36:13;25.60;;;6.32;;
66603;SDS011;53460;39.612;8.822;2022-08-19T07:38:40;25.88;;;5.68;;
66603;SDS011;53460;39.612;8.822;2022-08-19T07:41:06;13.43;;;4.50;;
66603;SDS011;53460;39.612;8.822;2022-08-19T07:43:32;7.90;;;2.67;;
66603;SDS011;53460;39.612;8.822;2022-08-19T07:45:58;9.50;;;2.97;;
66603;SDS011;53460;39.612;8.822;2022-08-19T07:48:24;14.18;;;3.33;;
66603;SDS011;53460;39.612;8.822;2022-08-19T07:50:57;10.90;;;3.00;;
66603;SDS011;53460;39.612;8.822;2022-08-19T07:53:23;9.98;;;2.55;;
66603;SDS011;53460;39.612;8.822;2022-08-19T07:55:49;9.23;;;2.72;;
66603;SDS011;53460;39.612;8.822;2022-08-19T07:58:15;10.70;;;3.28;;
66603;SDS011;53460;39.612;8.822;2022-08-19T08:00:42;10.50;;;2.67;;
66603;SDS011;53460;39.612;8.822;2022-08-19T08:03:08;8.20;;;2.72;;
66603;SDS011;53460;39.612;8.822;2022-08-19T08:05:34;10.43;;;2.72;;
66603;SDS011;53460;39.612;8.822;2022-08-19T08:08:18;8.88;;;2.58;;
66603;SDS011;53460;39.612;8.822;2022-08-19T08:11:03;10.48;;;2.78;;
66603;SDS011;53460;39.612;8.822;2022-08-19T08:13:28;10.65;;;3.10;;
66603;SDS011;53460;39.612;8.822;2022-08-19T08:15:54;8.18;;;2.33;;
66603;SDS011;53460;39.612;8.822;2022-08-19T08:18:20;10.77;;;3.00;;
66603;SDS011;53460;39.612;8.822;2022-08-19T08:20:46;11.10;;;2.88;;
66603;SDS011;53460;39.612;8.822;2022-08-19T08:23:12;10.70;;;3.90;;
66603;SDS011;53460;39.612;8.822;2022-08-19T08:25:56;8.15;;;2.45;;
66603;SDS011;53460;39.612;8.822;2022-08-19T08:28:22;6.97;;;2.63;;
66603;SDS011;53460;39.612;8.822;2022-08-19T08:30:48;11.57;;;2.58;;
66603;SDS011;53460;39.612;8.822;2022-08-19T08:33:21;10.95;;;3.00;;
66603;SDS011;53460;39.612;8.822;2022-08-19T08:35:47;9.35;;;2.45;;
66603;SDS011;53460;39.612;8.822;2022-08-19T08:38:13;7.68;;;2.38;;
66603;SDS011;53460;39.612;8.822;2022-08-19T08:45:33;10.82;;;2.20;;
66603;SDS011;53460;39.612;8.822;2022-08-19T08:48:01;11.00;;;2.45;;
66603;SDS011;53460;39.612;8.822;2022-08-19T08:50:32;9.60;;;2.53;;
66603;SDS011;53460;39.612;8.822;2022-08-19T08:53:01;11.73;;;2.80;;
66603;SDS011;53460;39.612;8.822;2022-08-19T08:55:27;7.43;;;2.13;;
66603;SDS011;53460;39.612;8.822;2022-08-19T08:57:55;10.15;;;2.20;;
66603;SDS011;53460;39.612;8.822;2022-08-19T09:00:23;8.60;;;2.00;;
66603;SDS011;53460;39.612;8.822;2022-08-19T09:02:50;7.78;;;2.10;;
66603;SDS011;53460;39.612;8.822;2022-08-19T09:05:15;8.32;;;2.33;;
66603;SDS011;53460;39.612;8.822;2022-08-19T09:15:22;9.18;;;3.15;;
66603;SDS011;53460;39.612;8.822;2022-08-19T09:17:49;6.97;;;1.83;;
66603;SDS011;53460;39.612;8.822;2022-08-19T09:20:16;4.50;;;1.83;;
66603;SDS011;53460;39.612;8.822;2022-08-19T09:22:43;10.82;;;3.70;;
66603;SDS011;53460;39.612;8.822;2022-08-19T09:25:10;4.63;;;1.88;;
66603;SDS011;53460;39.612;8.822;2022-08-19T09:27:36;4.50;;;1.83;;
66603;SDS011;53460;39.612;8.822;2022-08-19T09:30:03;7.90;;;2.35;;
66603;SDS011;53460;39.612;8.822;2022-08-19T09:32:29;9.98;;;2.33;;
66603;SDS011;53460;39.612;8.822;2022-08-19T09:34:55;12.80;;;3.97;;
66603;SDS011;53460;39.612;8.822;2022-08-19T09:37:23;10.15;;;4.50;;
66603;SDS011;53460;39.612;8.822;2022-08-19T09:39:49;5.70;;;2.03;;
66603;SDS011;53460;39.612;8.822;2022-08-19T09:42:15;4.60;;;1.75;;
66603;SDS011;53460;39.612;8.822;2022-08-19T09:44:41;9.52;;;1.77;;
66603;SDS011;53460;39.612;8.822;2022-08-19T09:47:07;9.05;;;1.58;;
66603;SDS011;53460;39.612;8.822;2022-08-19T09:49:33;5.43;;;1.77;;
66603;SDS011;53460;39.612;8.822;2022-08-19T09:51:59;5.95;;;2.15;;
66603;SDS011;53460;39.612;8.822;2022-08-19T09:54:25;6.93;;;2.15;;
66603;SDS011;53460;39.612;8.822;2022-08-19T09:56:51;4.50;;;1.65;;
66603;SDS011;53460;39.612;8.822;2022-08-19T09:59:17;7.88;;;2.33;;
66603;SDS011;53460;39.612;8.822;2022-08-19T10:01:43;8.73;;;2.30;;
66603;SDS011;53460;39.612;8.822;2022-08-19T10:04:08;5.50;;;2.30;;
66603;SDS011;53460;39.612;8.822;2022-08-19T10:06:35;6.03;;;1.90;;
66603;SDS011;53460;39.612;8.822;2022-08-19T10:09:01;6.20;;;1.70;;
66603;SDS011;53460;39.612;8.822;2022-08-19T10:11:29;9.75;;;1.65;;
66603;SDS011;53460;39.612;8.822;2022-08-19T10:13:54;4.57;;;1.90;;
66603;SDS011;53460;39.612;8.822;2022-08-19T10:16:21;5.72;;;1.77;;
66603;SDS011;53460;39.612;8.822;2022-08-19T10:18:48;5.25;;;1.80;;
66603;SDS011;53460;39.612;8.822;2022-08-19T10:21:15;8.07;;;1.95;;
66603;SDS011;53460;39.612;8.822;2022-08-19T10:23:41;6.47;;;1.80;;
66603;SDS011;53460;39.612;8.822;2022-08-19T10:26:11;5.47;;;1.88;;
66603;SDS011;53460;39.612;8.822;2022-08-19T10:28:37;7.15;;;2.22;;
66603;SDS011;53460;39.612;8.822;2022-08-19T10:31:03;13.82;;;3.22;;
66603;SDS011;53460;39.612;8.822;2022-08-19T10:33:29;16.50;;;4.00;;
66603;SDS011;53460;39.612;8.822;2022-08-19T10:36:00;10.50;;;3.30;;
66603;SDS011;53460;39.612;8.822;2022-08-19T10:38:26;6.18;;;2.55;;
66603;SDS011;53460;39.612;8.822;2022-08-19T10:40:51;6.90;;;2.33;;
66603;SDS011;53460;39.612;8.822;2022-08-19T10:43:18;6.38;;;2.17;;
66603;SDS011;53460;39.612;8.822;2022-08-19T10:45:43;8.10;;;2.40;;
66603;SDS011;53460;39.612;8.822;2022-08-19T10:48:13;9.60;;;2.88;;
66603;SDS011;53460;39.612;8.822;2022-08-19T10:50:39;9.60;;;2.45;;
66603;SDS011;53460;39.612;8.822;2022-08-19T10:53:23;8.30;;;2.72;;
66603;SDS011;53460;39.612;8.822;2022-08-19T10:55:50;6.50;;;2.05;;
66603;SDS011;53460;39.612;8.822;2022-08-19T10:58:34;7.60;;;2.08;;
66603;SDS011;53460;39.612;8.822;2022-08-19T11:01:00;9.73;;;2.38;;
66603;SDS011;53460;39.612;8.822;2022-08-19T11:03:26;3.90;;;1.95;;
66603;SDS011;53460;39.612;8.822;2022-08-19T11:06:01;11.35;;;2.38;;
66603;SDS011;53460;39.612;8.822;2022-08-19T11:08:27;6.85;;;1.98;;
66603;SDS011;53460;39.612;8.822;2022-08-19T11:10:53;7.22;;;2.00;;
66603;SDS011;53460;39.612;8.822;2022-08-19T11:13:22;4.47;;;1.70;;
66603;SDS011;53460;39.612;8.822;2022-08-19T11:15:55;7.05;;;1.80;;
66603;SDS011;53460;39.612;8.822;2022-08-19T11:18:21;4.57;;;2.17;;
66603;SDS011;53460;39.612;8.822;2022-08-19T11:20:46;7.32;;;2.38;;
66603;SDS011;53460;39.612;8.822;2022-08-19T11:23:12;8.98;;;2.58;;
66603;SDS011;53460;39.612;8.822;2022-08-19T11:25:38;10.07;;;2.35;;
66603;SDS011;53460;39.612;8.822;2022-08-19T11:28:04;4.78;;;2.10;;
66603;SDS011;53460;39.612;8.822;2022-08-19T11:30:30;4.68;;;2.08;;
66603;SDS011;53460;39.612;8.822;2022-08-19T11:32:55;4.57;;;1.80;;
66603;SDS011;53460;39.612;8.822;2022-08-19T11:35:21;4.82;;;2.03;;
66603;SDS011;53460;39.612;8.822;2022-08-19T11:37:48;5.20;;;1.95;;
66603;SDS011;53460;39.612;8.822;2022-08-19T11:40:14;5.53;;;2.00;;
66603;SDS011;53460;39.612;8.822;2022-08-19T11:42:39;5.85;;;2.38;;
66603;SDS011;53460;39.612;8.822;2022-08-19T11:45:20;10.40;;;1.95;;
66603;SDS011;53460;39.612;8.822;2022-08-19T11:47:46;7.75;;;2.50;;
66603;SDS011;53460;39.612;8.822;2022-08-19T11:50:12;5.18;;;2.00;;
66603;SDS011;53460;39.612;8.822;2022-08-19T11:52:38;8.73;;;2.50;;
66603;SDS011;53460;39.612;8.822;2022-08-19T11:55:04;8.20;;;1.90;;
66603;SDS011;53460;39.612;8.822;2022-08-19T11:57:30;5.35;;;1.85;;
66603;SDS011;53460;39.612;8.822;2022-08-19T11:59:55;5.40;;;1.40;;
66603;SDS011;53460;39.612;8.822;2022-08-19T12:02:21;6.03;;;2.47;;
66603;SDS011;53460;39.612;8.822;2022-08-19T12:04:48;6.43;;;1.83;;
66603;SDS011;53460;39.612;8.822;2022-08-19T12:07:14;4.75;;;1.73;;
66603;SDS011;53460;39.612;8.822;2022-08-19T12:09:39;6.07;;;1.95;;
66603;SDS011;53460;39.612;8.822;2022-08-19T12:12:05;3.55;;;1.73;;
66603;SDS011;53460;39.612;8.822;2022-08-19T12:14:31;4.65;;;1.67;;
66603;SDS011;53460;39.612;8.822;2022-08-19T12:16:57;5.72;;;1.90;;
66603;SDS011;53460;39.612;8.822;2022-08-19T12:19:22;7.05;;;1.88;;
66603;SDS011;53460;39.612;8.822;2022-08-19T12:21:50;5.97;;;2.30;;
66603;SDS011;53460;39.612;8.822;2022-08-19T12:24:16;6.43;;;2.10;;
66603;SDS011;53460;39.612;8.822;2022-08-19T12:26:48;4.43;;;1.95;;
66603;SDS011;53460;39.612;8.822;2022-08-19T12:29:13;4.25;;;1.73;;
66603;SDS011;53460;39.612;8.822;2022-08-19T12:31:39;8.95;;;2.58;;
66603;SDS011;53460;39.612;8.822;2022-08-19T12:34:05;7.70;;;2.00;;
66603;SDS011;53460;39.612;8.822;2022-08-19T12:36:30;5.03;;;2.10;;
66603;SDS011;53460;39.612;8.822;2022-08-19T12:38:57;3.22;;;1.35;;
66603;SDS011;53460;39.612;8.822;2022-08-19T12:41:23;4.00;;;1.70;;
66603;SDS011;53460;39.612;8.822;2022-08-19T12:43:49;4.25;;;1.83;;
66603;SDS011;53460;39.612;8.822;2022-08-19T12:46:15;5.53;;;1.67;;
66603;SDS011;53460;39.612;8.822;2022-08-19T12:48:40;5.93;;;2.13;;
66603;SDS011;53460;39.612;8.822;2022-08-19T12:51:10;4.68;;;2.10;;
66603;SDS011;53460;39.612;8.822;2022-08-19T12:53:36;7.82;;;2.53;;
66603;SDS011;53460;39.612;8.822;2022-08-19T12:56:01;8.23;;;2.60;;
66603;SDS011;53460;39.612;8.822;2022-08-19T12:58:27;9.55;;;2.67;;
66603;SDS011;53460;39.612;8.822;2022-08-19T13:00:54;5.07;;;2.00;;
66603;SDS011;53460;39.612;8.822;2022-08-19T13:03:19;5.38;;;2.38;;
66603;SDS011;53460;39.612;8.822;2022-08-19T13:05:45;8.40;;;2.92;;
66603;SDS011;53460;39.612;8.822;2022-08-19T13:08:11;7.95;;;2.40;;
66603;SDS011;53460;39.612;8.822;2022-08-19T13:10:36;12.50;;;3.60;;
66603;SDS011;53460;39.612;8.822;2022-08-19T13:13:03;9.63;;;2.45;;
66603;SDS011;53460;39.612;8.822;2022-08-19T13:15:32;4.40;;;2.03;;
66603;SDS011;53460;39.612;8.822;2022-08-19T13:17:58;7.55;;;2.60;;
66603;SDS011;53460;39.612;8.822;2022-08-19T13:20:24;11.23;;;2.67;;
66603;SDS011;53460;39.612;8.822;2022-08-19T13:22:50;10.20;;;3.10;;
66603;SDS011;53460;39.612;8.822;2022-08-19T13:25:16;12.50;;;3.33;;
66603;SDS011;53460;39.612;8.822;2022-08-19T13:27:44;6.93;;;2.38;;
66603;SDS011;53460;39.612;8.822;2022-08-19T13:30:11;7.53;;;2.72;;
66603;SDS011;53460;39.612;8.822;2022-08-19T13:32:55;8.90;;;2.55;;
66603;SDS011;53460;39.612;8.822;2022-08-19T13:35:47;6.47;;;2.40;;
66603;SDS011;53460;39.612;8.822;2022-08-19T13:38:13;6.18;;;2.33;;
66603;SDS011;53460;39.612;8.822;2022-08-19T13:40:39;10.27;;;3.45;;
66603;SDS011;53460;39.612;8.822;2022-08-19T13:43:05;15.73;;;2.72;;
66603;SDS011;53460;39.612;8.822;2022-08-19T13:45:32;7.80;;;2.15;;
66603;SDS011;53460;39.612;8.822;2022-08-19T13:47:59;7.75;;;2.78;;
66603;SDS011;53460;39.612;8.822;2022-08-19T13:50:28;4.70;;;2.25;;
66603;SDS011;53460;39.612;8.822;2022-08-19T13:52:54;6.03;;;2.17;;
66603;SDS011;53460;39.612;8.822;2022-08-19T13:55:20;8.88;;;2.50;;
66603;SDS011;53460;39.612;8.822;2022-08-19T13:57:49;7.68;;;2.17;;
66603;SDS011;53460;39.612;8.822;2022-08-19T14:00:15;7.03;;;2.60;;
66603;SDS011;53460;39.612;8.822;2022-08-19T14:02:43;6.88;;;2.35;;
66603;SDS011;53460;39.612;8.822;2022-08-19T14:05:11;7.60;;;2.40;;
66603;SDS011;53460;39.612;8.822;2022-08-19T14:07:37;5.93;;;2.30;;
66603;SDS011;53460;39.612;8.822;2022-08-19T14:10:04;8.98;;;2.40;;
66603;SDS011;53460;39.612;8.822;2022-08-19T14:12:30;4.70;;;2.30;;
66603;SDS011;53460;39.612;8.822;2022-08-19T14:14:57;6.00;;;2.35;;
66603;SDS011;53460;39.612;8.822;2022-08-19T14:17:22;7.32;;;2.42;;
66603;SDS011;53460;39.612;8.822;2022-08-19T14:19:48;10.90;;;2.97;;
66603;SDS011;53460;39.612;8.822;2022-08-19T14:22:14;5.63;;;2.10;;
66603;SDS011;53460;39.612;8.822;2022-08-19T14:24:40;5.50;;;2.10;;
66603;SDS011;53460;39.612;8.822;2022-08-19T14:27:06;6.10;;;2.25;;
66603;SDS011;53460;39.612;8.822;2022-08-19T14:29:32;7.35;;;2.60;;
66603;SDS011;53460;39.612;8.822;2022-08-19T14:31:57;7.85;;;2.50;;
66603;SDS011;53460;39.612;8.822;2022-08-19T14:34:24;5.07;;;2.40;;
66603;SDS011;53460;39.612;8.822;2022-08-19T14:36:50;8.30;;;2.47;;
66603;SDS011;53460;39.612;8.822;2022-08-19T14:39:15;9.38;;;2.67;;
66603;SDS011;53460;39.612;8.822;2022-08-19T14:41:41;10.70;;;2.80;;
66603;SDS011;53460;39.612;8.822;2022-08-19T14:44:10;5.35;;;2.20;;
66603;SDS011;53460;39.612;8.822;2022-08-19T14:46:37;9.35;;;2.70;;
66603;SDS011;53460;39.612;8.822;2022-08-19T14:49:03;7.40;;;2.40;;
66603;SDS011;53460;39.612;8.822;2022-08-19T14:51:29;12.15;;;2.88;;
66603;SDS011;53460;39.612;8.822;2022-08-19T14:53:54;7.88;;;2.78;;
66603;SDS011;53460;39.612;8.822;2022-08-19T14:56:21;8.90;;;4.18;;
66603;SDS011;53460;39.612;8.822;2022-08-19T14:58:47;7.32;;;3.33;;
66603;SDS011;53460;39.612;8.822;2022-08-19T15:01:17;7.68;;;2.65;;